createdAt,value
2017-03-13T00:00:23.763Z,928.46
2017-03-13T00:00:52.105Z,928.49
2017-03-13T00:01:20.469Z,928.47
2017-03-13T00:01:48.751Z,928.45
2017-03-13T00:02:17.012Z,928.47
2017-03-13T00:02:45.250Z,928.44
2017-03-13T00:03:13.559Z,928.43
2017-03-13T00:03:41.949Z,928.41
2017-03-13T00:04:10.326Z,928.4
2017-03-13T00:04:38.613Z,928.39
2017-03-13T00:05:06.619Z,928.41
2017-03-13T00:05:35.085Z,928.41
2017-03-13T00:06:03.130Z,928.38
2017-03-13T00:06:31.502Z,928.39
2017-03-13T00:06:59.966Z,928.39
2017-03-13T00:07:28.335Z,928.41
2017-03-13T00:07:56.823Z,928.38
2017-03-13T00:08:25.053Z,928.4
2017-03-13T00:08:53.395Z,928.42
2017-03-13T00:09:21.909Z,928.39
2017-03-13T00:09:50.187Z,928.4
2017-03-13T00:10:18.491Z,928.4
2017-03-13T00:10:46.762Z,928.43
2017-03-13T00:11:14.952Z,928.43
2017-03-13T00:11:43.153Z,928.41
2017-03-13T00:12:11.509Z,928.47
2017-03-13T00:12:39.883Z,928.52
2017-03-13T00:13:08.033Z,928.53
2017-03-13T00:13:36.256Z,928.53
2017-03-13T00:14:04.558Z,928.54
2017-03-13T00:14:32.871Z,928.54
2017-03-13T00:15:01.087Z,928.58
2017-03-13T00:15:29.321Z,928.58
2017-03-13T00:15:57.722Z,928.56
2017-03-13T00:16:26.052Z,928.6
2017-03-13T00:16:54.524Z,928.6
2017-03-13T00:17:22.749Z,928.62
2017-03-13T00:17:51.159Z,928.65
2017-03-13T00:18:19.401Z,928.66
2017-03-13T00:18:47.616Z,928.64
2017-03-13T00:19:15.950Z,928.67
2017-03-13T00:19:44.200Z,928.68
2017-03-13T00:20:12.405Z,928.64
2017-03-13T00:20:40.799Z,928.7
2017-03-13T00:21:09.109Z,928.68
2017-03-13T00:21:37.524Z,928.65
2017-03-13T00:22:05.917Z,928.68
2017-03-13T00:22:34.249Z,928.67
2017-03-13T00:23:02.589Z,928.68
2017-03-13T00:23:30.904Z,928.69
2017-03-13T00:23:59.333Z,928.7
2017-03-13T00:24:28.651Z,928.72
2017-03-13T00:24:56.870Z,928.69
2017-03-13T00:25:25.335Z,928.7
2017-03-13T00:25:53.687Z,928.72
2017-03-13T00:26:22.057Z,928.72
2017-03-13T00:26:50.433Z,928.68
2017-03-13T00:27:19.668Z,928.72
2017-03-13T00:27:48.067Z,928.73
2017-03-13T00:28:16.366Z,928.71
2017-03-13T00:28:44.636Z,928.72
2017-03-13T00:29:13.042Z,928.73
2017-03-13T00:29:41.120Z,928.72
2017-03-13T00:30:09.616Z,928.75
2017-03-13T00:30:37.743Z,928.74
2017-03-13T00:31:06.253Z,928.71
2017-03-13T00:31:34.716Z,928.7
2017-03-13T00:32:03.313Z,928.74
2017-03-13T00:32:31.596Z,928.71
2017-03-13T00:32:59.844Z,928.72
2017-03-13T00:33:28.109Z,928.7
2017-03-13T00:33:56.236Z,928.74
2017-03-13T00:34:24.617Z,928.72
2017-03-13T00:34:53.231Z,928.75
2017-03-13T00:35:21.530Z,928.74
2017-03-13T00:35:49.942Z,928.78
2017-03-13T00:36:18.514Z,928.8
2017-03-13T00:36:47.048Z,928.8
2017-03-13T00:37:15.481Z,928.84
2017-03-13T00:37:43.740Z,928.81
2017-03-13T00:38:12.097Z,928.82
2017-03-13T00:38:40.614Z,928.82
2017-03-13T00:39:09.307Z,928.86
2017-03-13T00:39:37.882Z,928.83
2017-03-13T00:40:06.159Z,928.84
2017-03-13T00:40:34.423Z,928.84
2017-03-13T00:41:02.744Z,928.82
2017-03-13T00:41:30.930Z,928.85
2017-03-13T00:41:59.215Z,928.86
2017-03-13T00:42:27.632Z,928.86
2017-03-13T00:42:55.849Z,928.84
2017-03-13T00:43:24.189Z,928.85
2017-03-13T00:43:52.489Z,928.81
2017-03-13T00:44:20.829Z,928.83
2017-03-13T00:44:49.156Z,928.84
2017-03-13T00:45:17.262Z,928.88
2017-03-13T00:45:45.614Z,928.84
2017-03-13T00:46:13.874Z,928.85
2017-03-13T00:46:42.224Z,928.83
2017-03-13T00:47:10.663Z,928.85
2017-03-13T00:47:39.103Z,928.85
2017-03-13T00:48:07.815Z,928.85
2017-03-13T00:48:36.960Z,928.8
2017-03-13T00:49:05.276Z,928.84
2017-03-13T00:49:33.620Z,928.81
2017-03-13T00:50:01.863Z,928.82
2017-03-13T00:50:30.067Z,928.79
2017-03-13T00:50:58.639Z,928.8
2017-03-13T00:51:26.940Z,928.79
2017-03-13T00:51:55.186Z,928.79
2017-03-13T00:52:23.993Z,928.75
2017-03-13T00:52:52.338Z,928.77
2017-03-13T00:53:20.683Z,928.76
2017-03-13T00:53:48.780Z,928.75
2017-03-13T00:54:17.053Z,928.76
2017-03-13T00:54:45.424Z,928.78
2017-03-13T00:55:14.719Z,928.76
2017-03-13T00:55:43.245Z,928.74
2017-03-13T00:56:11.954Z,928.74
2017-03-13T00:56:40.354Z,928.71
2017-03-13T00:57:08.713Z,928.72
2017-03-13T00:57:37.135Z,928.75
2017-03-13T00:58:05.504Z,928.71
2017-03-13T00:58:34.093Z,928.69
2017-03-13T00:59:02.279Z,928.69
2017-03-13T00:59:30.608Z,928.69
2017-03-13T00:59:59.041Z,928.71
2017-03-13T01:00:27.261Z,928.71
2017-03-13T01:00:55.542Z,928.67
2017-03-13T01:01:23.832Z,928.69
2017-03-13T01:01:52.246Z,928.72
2017-03-13T01:02:20.690Z,928.7
2017-03-13T01:02:48.996Z,928.71
2017-03-13T01:03:17.298Z,928.68
2017-03-13T01:03:45.669Z,928.72
2017-03-13T01:04:13.836Z,928.69
2017-03-13T01:04:42.139Z,928.71
2017-03-13T01:05:10.433Z,928.75
2017-03-13T01:05:38.837Z,928.72
2017-03-13T01:06:07.191Z,928.71
2017-03-13T01:06:35.633Z,928.74
2017-03-13T01:07:03.860Z,928.77
2017-03-13T01:07:32.231Z,928.76
2017-03-13T01:08:00.658Z,928.75
2017-03-13T01:08:29.047Z,928.76
2017-03-13T01:08:57.441Z,928.74
2017-03-13T01:09:25.708Z,928.74
2017-03-13T01:09:54.000Z,928.73
2017-03-13T01:10:22.333Z,928.73
2017-03-13T01:10:50.752Z,928.74
2017-03-13T01:11:19.046Z,928.73
2017-03-13T01:11:47.512Z,928.71
2017-03-13T01:12:15.879Z,928.72
2017-03-13T01:12:44.142Z,928.72
2017-03-13T01:13:12.497Z,928.73
2017-03-13T01:13:40.778Z,928.71
2017-03-13T01:14:09.030Z,928.71
2017-03-13T01:14:37.324Z,928.7
2017-03-13T01:15:05.493Z,928.67
2017-03-13T01:15:33.904Z,928.71
2017-03-13T01:16:02.247Z,928.69
2017-03-13T01:16:30.633Z,928.68
2017-03-13T01:16:59.017Z,928.7
2017-03-13T01:17:27.583Z,928.71
2017-03-13T01:17:55.742Z,928.68
2017-03-13T01:18:24.072Z,928.69
2017-03-13T01:18:52.351Z,928.72
2017-03-13T01:19:20.565Z,928.69
2017-03-13T01:19:48.915Z,928.71
2017-03-13T01:20:17.213Z,928.7
2017-03-13T01:20:45.532Z,928.72
2017-03-13T01:21:13.915Z,928.71
2017-03-13T01:21:42.707Z,928.7
2017-03-13T01:22:11.090Z,928.68
2017-03-13T01:22:39.543Z,928.7
2017-03-13T01:23:07.704Z,928.69
2017-03-13T01:23:35.882Z,928.68
2017-03-13T01:24:04.080Z,928.7
2017-03-13T01:24:32.523Z,928.7
2017-03-13T01:25:00.721Z,928.69
2017-03-13T01:25:29.064Z,928.65
2017-03-13T01:25:57.350Z,928.69
2017-03-13T01:26:25.786Z,928.68
2017-03-13T01:26:54.119Z,928.64
2017-03-13T01:27:22.440Z,928.67
2017-03-13T01:27:50.593Z,928.67
2017-03-13T01:28:18.878Z,928.69
2017-03-13T01:28:47.270Z,928.69
2017-03-13T01:29:15.648Z,928.71
2017-03-13T01:29:43.892Z,928.71
2017-03-13T01:30:12.259Z,928.76
2017-03-13T01:30:40.585Z,928.79
2017-03-13T01:31:09.003Z,928.81
2017-03-13T01:31:37.297Z,928.83
2017-03-13T01:32:05.514Z,928.86
2017-03-13T01:32:33.783Z,928.92
2017-03-13T01:33:02.018Z,929
2017-03-13T01:33:30.235Z,929.09
2017-03-13T01:33:58.420Z,929.13
2017-03-13T01:34:26.825Z,929.2
2017-03-13T01:34:55.185Z,929.24
2017-03-13T01:35:23.391Z,929.24
2017-03-13T01:35:51.812Z,929.26
2017-03-13T01:36:20.067Z,929.21
2017-03-13T01:36:48.409Z,929.25
2017-03-13T01:37:16.899Z,929.3
2017-03-13T01:37:45.272Z,929.3
2017-03-13T01:38:13.562Z,929.33
2017-03-13T01:38:41.939Z,929.23
2017-03-13T01:39:10.355Z,929.25
2017-03-13T01:39:38.642Z,929.18
2017-03-13T01:40:06.947Z,929.14
2017-03-13T01:40:35.251Z,929.19
2017-03-13T01:41:03.984Z,929.16
2017-03-13T01:41:32.354Z,929.21
2017-03-13T01:42:00.756Z,929.24
2017-03-13T01:42:29.067Z,929.3
2017-03-13T01:42:57.450Z,929.36
2017-03-13T01:43:25.690Z,929.3
2017-03-13T01:43:54.082Z,929.29
2017-03-13T01:44:22.305Z,929.23
2017-03-13T01:44:50.698Z,929.39
2017-03-13T01:45:18.927Z,929.39
2017-03-13T01:45:47.617Z,929.38
2017-03-13T01:46:15.890Z,929.4
2017-03-13T01:46:44.043Z,929.46
2017-03-13T01:47:12.430Z,929.42
2017-03-13T01:47:40.987Z,929.46
2017-03-13T01:48:09.335Z,929.37
2017-03-13T01:48:37.558Z,929.51
2017-03-13T01:49:05.782Z,929.54
2017-03-13T01:49:33.915Z,929.46
2017-03-13T01:50:02.123Z,929.55
2017-03-13T01:50:30.492Z,929.44
2017-03-13T01:50:58.602Z,929.55
2017-03-13T01:51:27.011Z,929.55
2017-03-13T01:51:55.460Z,929.54
2017-03-13T01:52:23.867Z,929.57
2017-03-13T01:52:52.352Z,929.58
2017-03-13T01:53:20.631Z,929.55
2017-03-13T01:53:48.947Z,929.54
2017-03-13T01:54:17.110Z,929.49
2017-03-13T01:54:45.383Z,929.52
2017-03-13T01:55:13.657Z,929.71
2017-03-13T01:55:42.131Z,929.61
2017-03-13T01:56:10.530Z,929.62
2017-03-13T01:56:38.757Z,929.69
2017-03-13T01:57:06.955Z,929.73
2017-03-13T01:57:35.298Z,929.72
2017-03-13T01:58:03.377Z,929.76
2017-03-13T01:58:31.666Z,929.73
2017-03-13T01:58:59.910Z,929.82
2017-03-13T01:59:28.363Z,929.73
2017-03-13T01:59:56.522Z,929.82
2017-03-13T02:00:24.700Z,929.83
2017-03-13T02:00:53.007Z,929.81
2017-03-13T02:01:21.213Z,929.83
2017-03-13T02:01:49.799Z,929.86
2017-03-13T02:02:17.888Z,929.88
2017-03-13T02:02:46.167Z,929.97
2017-03-13T02:03:14.532Z,929.97
2017-03-13T02:03:42.947Z,929.97
2017-03-13T02:04:11.233Z,929.99
2017-03-13T02:04:39.504Z,929.98
2017-03-13T02:05:07.792Z,929.98
2017-03-13T02:05:36.201Z,929.99
2017-03-13T02:06:04.505Z,929.98
2017-03-13T02:06:32.759Z,929.95
2017-03-13T02:07:01.085Z,929.92
2017-03-13T02:07:29.917Z,929.87
2017-03-13T02:07:58.319Z,929.89
2017-03-13T02:08:26.629Z,929.93
2017-03-13T02:08:55.191Z,930
2017-03-13T02:09:23.484Z,929.99
2017-03-13T02:09:52.124Z,930
2017-03-13T02:10:20.542Z,930.04
2017-03-13T02:10:48.737Z,930
2017-03-13T02:11:17.349Z,930.04
2017-03-13T02:11:45.602Z,930.09
2017-03-13T02:12:13.918Z,930.17
2017-03-13T02:12:42.167Z,930.13
2017-03-13T02:13:10.420Z,930.07
2017-03-13T02:13:40.212Z,930.05
2017-03-13T02:14:08.781Z,930.11
2017-03-13T02:14:37.096Z,930.09
2017-03-13T02:15:05.800Z,930.12
2017-03-13T02:15:34.181Z,930.11
2017-03-13T02:16:02.437Z,930.11
2017-03-13T02:16:30.707Z,930.15
2017-03-13T02:16:58.917Z,930.06
2017-03-13T02:17:27.687Z,930.11
2017-03-13T02:17:56.159Z,930.09
2017-03-13T02:18:24.393Z,930.06
2017-03-13T02:18:52.573Z,930.1
2017-03-13T02:19:20.875Z,930.05
2017-03-13T02:19:49.151Z,930.03
2017-03-13T02:20:17.631Z,930.12
2017-03-13T02:20:46.011Z,930.07
2017-03-13T02:21:14.276Z,930.13
2017-03-13T02:21:42.493Z,930.08
2017-03-13T02:22:10.641Z,930.09
2017-03-13T02:22:38.945Z,930.07
2017-03-13T02:23:07.245Z,930.05
2017-03-13T02:23:35.479Z,930.03
2017-03-13T02:24:03.864Z,930.06
2017-03-13T02:24:32.178Z,930.07
2017-03-13T02:25:00.724Z,930.11
2017-03-13T02:25:29.076Z,930.13
2017-03-13T02:25:57.392Z,930.14
2017-03-13T02:26:25.630Z,930.16
2017-03-13T02:26:53.919Z,930.14
2017-03-13T02:27:22.136Z,930.12
2017-03-13T02:27:50.484Z,930.1
2017-03-13T02:28:19.006Z,930.12
2017-03-13T02:28:47.339Z,930.07
2017-03-13T02:29:15.785Z,930.09
2017-03-13T02:29:44.133Z,930.09
2017-03-13T02:30:12.398Z,930.09
2017-03-13T02:30:40.665Z,930.1
2017-03-13T02:31:08.967Z,930.08
2017-03-13T02:31:37.301Z,930.15
2017-03-13T02:32:05.470Z,930.15
2017-03-13T02:32:33.701Z,930.12
2017-03-13T02:33:02.072Z,930.11
2017-03-13T02:33:30.401Z,930.13
2017-03-13T02:33:58.901Z,930.13
2017-03-13T02:34:27.175Z,930.09
2017-03-13T02:34:55.455Z,930.07
2017-03-13T02:35:23.718Z,930.04
2017-03-13T02:35:52.068Z,930.01
2017-03-13T02:36:20.383Z,930
2017-03-13T02:36:48.727Z,929.96
2017-03-13T02:37:17.005Z,929.93
2017-03-13T02:37:45.236Z,929.94
2017-03-13T02:38:13.362Z,929.91
2017-03-13T02:38:41.624Z,929.94
2017-03-13T02:39:09.710Z,929.97
2017-03-13T02:39:38.001Z,929.96
2017-03-13T02:40:06.436Z,929.97
2017-03-13T02:40:34.750Z,929.95
2017-03-13T02:41:03.086Z,929.98
2017-03-13T02:41:31.410Z,929.98
2017-03-13T02:41:59.669Z,930
2017-03-13T02:42:27.747Z,930.02
2017-03-13T02:42:55.916Z,930.1
2017-03-13T02:43:24.286Z,930.15
2017-03-13T02:43:52.550Z,930.03
2017-03-13T02:44:20.759Z,930.06
2017-03-13T02:44:48.995Z,930.09
2017-03-13T02:45:17.135Z,930.07
2017-03-13T02:45:45.423Z,930.07
2017-03-13T02:46:13.804Z,930.01
2017-03-13T02:46:42.110Z,930.08
2017-03-13T02:47:10.525Z,930.05
2017-03-13T02:47:38.879Z,930.04
2017-03-13T02:48:07.121Z,930.05
2017-03-13T02:48:35.327Z,930.06
2017-03-13T02:49:03.503Z,930.04
2017-03-13T02:49:31.805Z,930.02
2017-03-13T02:50:00.137Z,930.03
2017-03-13T02:50:28.421Z,930.06
2017-03-13T02:50:56.714Z,930.09
2017-03-13T02:51:24.939Z,930.07
2017-03-13T02:51:53.260Z,930.09
2017-03-13T02:52:21.403Z,930.07
2017-03-13T02:52:49.735Z,930.08
2017-03-13T02:53:17.901Z,930.11
2017-03-13T02:53:46.326Z,930.06
2017-03-13T02:54:14.574Z,930.1
2017-03-13T02:54:42.778Z,930.09
2017-03-13T02:55:11.016Z,930.07
2017-03-13T02:55:39.296Z,930.12
2017-03-13T02:56:07.489Z,930.09
2017-03-13T02:56:35.585Z,930.15
2017-03-13T02:57:03.900Z,930.1
2017-03-13T02:57:32.147Z,930.13
2017-03-13T02:58:00.322Z,930.12
2017-03-13T02:58:28.507Z,930.13
2017-03-13T02:58:56.672Z,930.11
2017-03-13T02:59:24.727Z,930.12
2017-03-13T02:59:53.159Z,930.12
2017-03-13T03:00:21.529Z,930.15
2017-03-13T03:00:49.808Z,930.13
2017-03-13T03:01:18.118Z,930.14
2017-03-13T03:01:46.382Z,930.14
2017-03-13T03:02:14.658Z,930.15
2017-03-13T03:02:42.916Z,930.13
2017-03-13T03:03:11.303Z,930.15
2017-03-13T03:03:39.614Z,930.07
2017-03-13T03:04:08.134Z,930.13
2017-03-13T03:04:36.401Z,930.04
2017-03-13T03:05:04.653Z,930.02
2017-03-13T03:05:32.938Z,930.03
2017-03-13T03:06:01.279Z,929.97
2017-03-13T03:06:29.426Z,929.99
2017-03-13T03:06:57.557Z,929.99
2017-03-13T03:07:25.602Z,929.96
2017-03-13T03:07:54.136Z,929.92
2017-03-13T03:08:22.528Z,929.99
2017-03-13T03:08:50.742Z,929.97
2017-03-13T03:09:19.043Z,929.92
2017-03-13T03:09:47.409Z,929.96
2017-03-13T03:10:15.501Z,929.94
2017-03-13T03:10:43.604Z,929.96
2017-03-13T03:11:11.890Z,929.93
2017-03-13T03:11:39.962Z,929.89
2017-03-13T03:12:08.320Z,929.91
2017-03-13T03:12:36.476Z,929.88
2017-03-13T03:13:04.677Z,929.86
2017-03-13T03:13:32.964Z,929.86
2017-03-13T03:14:01.152Z,929.86
2017-03-13T03:14:29.501Z,929.85
2017-03-13T03:14:57.745Z,929.85
2017-03-13T03:15:26.019Z,929.83
2017-03-13T03:15:54.143Z,929.82
2017-03-13T03:16:22.374Z,929.84
2017-03-13T03:16:50.481Z,929.85
2017-03-13T03:17:18.782Z,929.85
2017-03-13T03:17:47.001Z,929.82
2017-03-13T03:18:15.237Z,929.82
2017-03-13T03:18:43.369Z,929.84
2017-03-13T03:19:11.564Z,929.79
2017-03-13T03:19:39.803Z,929.79
2017-03-13T03:20:08.060Z,929.79
2017-03-13T03:20:36.231Z,929.75
2017-03-13T03:21:04.467Z,929.78
2017-03-13T03:21:32.560Z,929.78
2017-03-13T03:22:00.768Z,929.76
2017-03-13T03:22:32.882Z,929.79
2017-03-13T03:23:01.400Z,929.79
2017-03-13T03:23:29.671Z,929.76
2017-03-13T03:23:57.963Z,929.78
2017-03-13T03:24:26.307Z,929.73
2017-03-13T03:24:54.643Z,929.75
2017-03-13T03:25:22.941Z,929.72
2017-03-13T03:25:51.262Z,929.75
2017-03-13T03:26:19.391Z,929.74
2017-03-13T03:26:47.560Z,929.73
2017-03-13T03:27:15.849Z,929.68
2017-03-13T03:27:44.156Z,929.69
2017-03-13T03:28:12.308Z,929.66
2017-03-13T03:28:40.606Z,929.65
2017-03-13T03:29:08.870Z,929.59
2017-03-13T03:29:37.126Z,929.59
2017-03-13T03:30:05.315Z,929.56
2017-03-13T03:30:33.551Z,929.52
2017-03-13T03:31:01.813Z,929.52
2017-03-13T03:31:30.033Z,929.54
2017-03-13T03:31:58.298Z,929.53
2017-03-13T03:32:26.502Z,929.52
2017-03-13T03:32:54.771Z,929.53
2017-03-13T03:33:23.048Z,929.54
2017-03-13T03:33:51.209Z,929.55
2017-03-13T03:34:19.430Z,929.52
2017-03-13T03:34:47.618Z,929.51
2017-03-13T03:35:15.859Z,929.53
2017-03-13T03:35:44.076Z,929.51
2017-03-13T03:36:12.373Z,929.53
2017-03-13T03:36:40.655Z,929.48
2017-03-13T03:37:08.756Z,929.54
2017-03-13T03:37:37.025Z,929.49
2017-03-13T03:38:05.451Z,929.45
2017-03-13T03:38:33.457Z,929.47
2017-03-13T03:39:01.724Z,929.46
2017-03-13T03:39:29.843Z,929.42
2017-03-13T03:39:58.119Z,929.46
2017-03-13T03:40:26.354Z,929.49
2017-03-13T03:40:54.614Z,929.46
2017-03-13T03:41:22.879Z,929.44
2017-03-13T03:41:50.937Z,929.47
2017-03-13T03:42:19.208Z,929.47
2017-03-13T03:42:47.386Z,929.48
2017-03-13T03:43:15.897Z,929.5
2017-03-13T03:43:44.163Z,929.51
2017-03-13T03:44:12.286Z,929.51
2017-03-13T03:44:40.548Z,929.53
2017-03-13T03:45:08.737Z,929.5
2017-03-13T03:45:37.023Z,929.59
2017-03-13T03:46:05.189Z,929.53
2017-03-13T03:46:33.365Z,929.57
2017-03-13T03:47:01.523Z,929.54
2017-03-13T03:47:29.799Z,929.53
2017-03-13T03:47:58.019Z,929.5
2017-03-13T03:48:26.319Z,929.54
2017-03-13T03:48:54.523Z,929.52
2017-03-13T03:49:22.654Z,929.49
2017-03-13T03:49:50.929Z,929.48
2017-03-13T03:50:19.069Z,929.46
2017-03-13T03:50:47.321Z,929.48
2017-03-13T03:51:15.493Z,929.45
2017-03-13T03:51:43.783Z,929.43
2017-03-13T03:52:12.049Z,929.4
2017-03-13T03:52:40.373Z,929.39
2017-03-13T03:53:08.671Z,929.34
2017-03-13T03:53:36.794Z,929.34
2017-03-13T03:54:04.910Z,929.32
2017-03-13T03:54:33.114Z,929.31
2017-03-13T03:55:01.065Z,929.26
2017-03-13T03:55:29.315Z,929.22
2017-03-13T03:55:57.502Z,929.21
2017-03-13T03:56:25.694Z,929.15
2017-03-13T03:56:53.833Z,929.16
2017-03-13T03:57:22.032Z,929.13
2017-03-13T03:57:50.335Z,929.11
2017-03-13T03:58:18.527Z,929.11
2017-03-13T03:58:46.758Z,929.09
2017-03-13T03:59:14.977Z,929.06
2017-03-13T03:59:43.028Z,929.06
2017-03-13T04:00:11.250Z,929.05
2017-03-13T04:00:39.648Z,929.03
2017-03-13T04:01:07.803Z,929.02
2017-03-13T04:01:36.028Z,928.98
2017-03-13T04:02:04.306Z,928.98
2017-03-13T04:02:32.435Z,928.95
2017-03-13T04:03:00.810Z,928.89
2017-03-13T04:03:29.010Z,928.88
2017-03-13T04:03:57.108Z,928.88
2017-03-13T04:04:25.366Z,928.82
2017-03-13T04:04:53.688Z,928.81
2017-03-13T04:05:21.861Z,928.83
2017-03-13T04:05:50.034Z,928.81
2017-03-13T04:06:18.249Z,928.83
2017-03-13T04:06:46.464Z,928.79
2017-03-13T04:07:14.675Z,928.79
2017-03-13T04:07:42.762Z,928.79
2017-03-13T04:08:10.839Z,928.82
2017-03-13T04:08:39.143Z,928.78
2017-03-13T04:09:07.311Z,928.81
2017-03-13T04:09:35.514Z,928.78
2017-03-13T04:10:03.657Z,928.78
2017-03-13T04:10:31.841Z,928.8
2017-03-13T04:11:00.047Z,928.79
2017-03-13T04:11:28.257Z,928.82
2017-03-13T04:11:56.449Z,928.79
2017-03-13T04:12:24.594Z,928.8
2017-03-13T04:12:52.779Z,928.79
2017-03-13T04:13:21.148Z,928.8
2017-03-13T04:13:49.333Z,928.78
2017-03-13T04:14:17.545Z,928.77
2017-03-13T04:14:45.646Z,928.8
2017-03-13T04:15:13.868Z,928.79
2017-03-13T04:15:42.135Z,928.75
2017-03-13T04:16:10.412Z,928.75
2017-03-13T04:16:38.597Z,928.75
2017-03-13T04:17:06.819Z,928.75
2017-03-13T04:17:35.119Z,928.76
2017-03-13T04:18:03.296Z,928.73
2017-03-13T04:18:31.712Z,928.74
2017-03-13T04:18:59.973Z,928.72
2017-03-13T04:19:28.226Z,928.74
2017-03-13T04:19:56.503Z,928.71
2017-03-13T04:20:24.803Z,928.71
2017-03-13T04:20:52.901Z,928.72
2017-03-13T04:21:21.108Z,928.77
2017-03-13T04:21:49.302Z,928.74
2017-03-13T04:22:17.587Z,928.72
2017-03-13T04:22:45.764Z,928.69
2017-03-13T04:23:14.127Z,928.76
2017-03-13T04:23:42.327Z,928.7
2017-03-13T04:24:10.644Z,928.69
2017-03-13T04:24:38.878Z,928.71
2017-03-13T04:25:07.194Z,928.73
2017-03-13T04:25:35.408Z,928.76
2017-03-13T04:26:03.705Z,928.74
2017-03-13T04:26:31.991Z,928.76
2017-03-13T04:27:00.330Z,928.75
2017-03-13T04:27:28.578Z,928.81
2017-03-13T04:27:56.841Z,928.76
2017-03-13T04:28:24.970Z,928.76
2017-03-13T04:28:53.200Z,928.75
2017-03-13T04:29:21.311Z,928.72
2017-03-13T04:29:49.558Z,928.7
2017-03-13T04:30:17.835Z,928.68
2017-03-13T04:30:46.103Z,928.66
2017-03-13T04:31:14.231Z,928.65
2017-03-13T04:31:42.395Z,928.62
2017-03-13T04:32:10.661Z,928.66
2017-03-13T04:32:38.865Z,928.64
2017-03-13T04:33:06.966Z,928.66
2017-03-13T04:33:35.300Z,928.67
2017-03-13T04:34:03.566Z,928.69
2017-03-13T04:34:31.750Z,928.71
2017-03-13T04:34:59.924Z,928.72
2017-03-13T04:35:28.212Z,928.73
2017-03-13T04:35:56.496Z,928.75
2017-03-13T04:36:24.702Z,928.73
2017-03-13T04:36:52.879Z,928.71
2017-03-13T04:37:21.131Z,928.7
2017-03-13T04:37:49.338Z,928.67
2017-03-13T04:38:17.590Z,928.67
2017-03-13T04:38:46.033Z,928.64
2017-03-13T04:39:14.342Z,928.65
2017-03-13T04:39:42.623Z,928.65
2017-03-13T04:40:10.911Z,928.63
2017-03-13T04:40:39.179Z,928.64
2017-03-13T04:41:07.461Z,928.62
2017-03-13T04:41:35.721Z,928.61
2017-03-13T04:42:03.985Z,928.56
2017-03-13T04:42:32.163Z,928.57
2017-03-13T04:43:00.377Z,928.57
2017-03-13T04:43:28.513Z,928.52
2017-03-13T04:43:56.812Z,928.52
2017-03-13T04:44:24.869Z,928.53
2017-03-13T04:44:53.047Z,928.5
2017-03-13T04:45:21.305Z,928.5
2017-03-13T04:45:49.479Z,928.49
2017-03-13T04:46:17.755Z,928.49
2017-03-13T04:46:45.870Z,928.48
2017-03-13T04:47:14.136Z,928.47
2017-03-13T04:47:42.300Z,928.45
2017-03-13T04:48:10.597Z,928.45
2017-03-13T04:48:38.955Z,928.48
2017-03-13T04:49:07.228Z,928.44
2017-03-13T04:49:35.507Z,928.42
2017-03-13T04:50:03.773Z,928.39
2017-03-13T04:50:32.019Z,928.36
2017-03-13T04:51:00.137Z,928.32
2017-03-13T04:51:28.451Z,928.31
2017-03-13T04:51:56.555Z,928.32
2017-03-13T04:52:24.858Z,928.32
2017-03-13T04:52:53.086Z,928.3
2017-03-13T04:53:21.276Z,928.3
2017-03-13T04:53:49.434Z,928.27
2017-03-13T04:54:17.584Z,928.24
2017-03-13T04:54:45.856Z,928.21
2017-03-13T04:55:14.058Z,928.24
2017-03-13T04:55:42.235Z,928.21
2017-03-13T04:56:10.444Z,928.19
2017-03-13T04:56:38.470Z,928.17
2017-03-13T04:57:06.740Z,928.13
2017-03-13T04:57:34.826Z,928.13
2017-03-13T04:58:02.991Z,928.1
2017-03-13T04:58:31.393Z,928.06
2017-03-13T04:58:59.645Z,928.08
2017-03-13T04:59:27.922Z,928.01
2017-03-13T04:59:56.192Z,928.04
2017-03-13T05:00:24.348Z,927.95
2017-03-13T05:00:52.622Z,927.96
2017-03-13T05:01:20.713Z,927.96
2017-03-13T05:01:48.906Z,927.9
2017-03-13T05:02:17.166Z,927.84
2017-03-13T05:02:45.455Z,927.82
2017-03-13T05:03:13.705Z,927.82
2017-03-13T05:03:41.817Z,927.8
2017-03-13T05:04:10.086Z,927.81
2017-03-13T05:04:38.305Z,927.79
2017-03-13T05:05:06.579Z,927.76
2017-03-13T05:05:34.730Z,927.75
2017-03-13T05:06:03.002Z,927.75
2017-03-13T05:06:31.254Z,927.72
2017-03-13T05:06:59.485Z,927.72
2017-03-13T05:07:27.789Z,927.71
2017-03-13T05:07:55.934Z,927.69
2017-03-13T05:08:24.126Z,927.69
2017-03-13T05:08:52.362Z,927.65
2017-03-13T05:09:20.615Z,927.65
2017-03-13T05:09:48.776Z,927.66
2017-03-13T05:10:17.053Z,927.63
2017-03-13T05:10:45.310Z,927.59
2017-03-13T05:11:13.632Z,927.59
2017-03-13T05:11:41.848Z,927.57
2017-03-13T05:12:10.073Z,927.59
2017-03-13T05:12:38.270Z,927.56
2017-03-13T05:13:06.504Z,927.56
2017-03-13T05:13:34.758Z,927.54
2017-03-13T05:14:03.076Z,927.58
2017-03-13T05:14:31.166Z,927.55
2017-03-13T05:14:59.379Z,927.52
2017-03-13T05:15:27.600Z,927.55
2017-03-13T05:15:55.878Z,927.56
2017-03-13T05:16:24.112Z,927.54
2017-03-13T05:16:52.282Z,927.51
2017-03-13T05:17:20.518Z,927.51
2017-03-13T05:17:48.627Z,927.49
2017-03-13T05:18:16.824Z,927.45
2017-03-13T05:18:45.150Z,927.46
2017-03-13T05:19:13.421Z,927.43
2017-03-13T05:19:41.719Z,927.42
2017-03-13T05:20:09.856Z,927.4
2017-03-13T05:20:38.037Z,927.42
2017-03-13T05:21:06.288Z,927.43
2017-03-13T05:21:34.514Z,927.39
2017-03-13T05:22:02.798Z,927.42
2017-03-13T05:22:31.070Z,927.42
2017-03-13T05:22:59.133Z,927.41
2017-03-13T05:23:27.388Z,927.38
2017-03-13T05:23:55.681Z,927.4
2017-03-13T05:24:23.987Z,927.41
2017-03-13T05:24:52.308Z,927.38
2017-03-13T05:25:20.633Z,927.39
2017-03-13T05:25:48.799Z,927.36
2017-03-13T05:26:16.914Z,927.39
2017-03-13T05:26:45.111Z,927.4
2017-03-13T05:27:13.318Z,927.4
2017-03-13T05:27:41.597Z,927.41
2017-03-13T05:28:09.857Z,927.44
2017-03-13T05:28:38.166Z,927.44
2017-03-13T05:29:06.561Z,927.45
2017-03-13T05:29:34.737Z,927.44
2017-03-13T05:30:02.993Z,927.46
2017-03-13T05:30:31.243Z,927.42
2017-03-13T05:30:59.515Z,927.41
2017-03-13T05:31:27.853Z,927.43
2017-03-13T05:31:56.115Z,927.44
2017-03-13T05:32:24.414Z,927.43
2017-03-13T05:32:52.596Z,927.43
2017-03-13T05:33:20.807Z,927.41
2017-03-13T05:33:48.978Z,927.46
2017-03-13T05:34:17.208Z,927.44
2017-03-13T05:34:45.394Z,927.43
2017-03-13T05:35:13.704Z,927.4
2017-03-13T05:35:41.820Z,927.41
2017-03-13T05:36:10.048Z,927.37
2017-03-13T05:36:38.288Z,927.38
2017-03-13T05:37:06.499Z,927.44
2017-03-13T05:37:34.747Z,927.39
2017-03-13T05:38:03.034Z,927.39
2017-03-13T05:38:31.109Z,927.39
2017-03-13T05:38:59.494Z,927.37
2017-03-13T05:39:27.805Z,927.39
2017-03-13T05:39:55.964Z,927.36
2017-03-13T05:40:24.144Z,927.37
2017-03-13T05:40:52.440Z,927.34
2017-03-13T05:41:20.548Z,927.29
2017-03-13T05:41:48.730Z,927.29
2017-03-13T05:42:16.999Z,927.26
2017-03-13T05:42:45.237Z,927.22
2017-03-13T05:43:13.422Z,927.22
2017-03-13T05:43:41.706Z,927.21
2017-03-13T05:44:10.296Z,927.18
2017-03-13T05:44:38.490Z,927.19
2017-03-13T05:45:06.788Z,927.15
2017-03-13T05:45:35.049Z,927.17
2017-03-13T05:46:03.206Z,927.14
2017-03-13T05:46:31.506Z,927.17
2017-03-13T05:46:59.776Z,927.18
2017-03-13T05:47:28.013Z,927.2
2017-03-13T05:47:56.288Z,927.2
2017-03-13T05:48:24.578Z,927.19
2017-03-13T05:48:52.750Z,927.19
2017-03-13T05:49:20.982Z,927.14
2017-03-13T05:49:49.126Z,927.19
2017-03-13T05:50:17.264Z,927.18
2017-03-13T05:50:45.528Z,927.16
2017-03-13T05:51:13.735Z,927.13
2017-03-13T05:51:41.910Z,927.16
2017-03-13T05:52:10.092Z,927.15
2017-03-13T05:52:38.247Z,927.12
2017-03-13T05:53:06.530Z,927.17
2017-03-13T05:53:34.845Z,927.14
2017-03-13T05:54:03.142Z,927.16